logo
Search for airport 
image banner adimage banner adimage banner ad
image banner ad

MRAR - Atirro

Located in Turrialba, Costa Rica

ICAO - MRAR, IATA -

Data provided by Airmate  

General information

Coordinates: N9°50'31" W83°39'5"
Elevation is 1936 feet MSL.
Magnetic variation is -3° East
View others Airports in Cartago

Operational data

Special qualification required
Current time UTC:
Current local time:
Weather at : MRPV - Tobias Bolanos Intl ( 55 km )
METAR: MRPV 131900Z 08021G31KT 9999 FEW040 25/15 A3009 NOSIG
TAF: TAF MRPV 131700Z 1318/1418 09019KT 9999 SCT030 BKN200 TX28/1319Z TN20/1410Z TEMPO 1318/1401 09021G31KT
View NOTAMs / SUP AIP / TFR affecting this airport [VIEW]
Communications frequencies: [VIEW]

Runways:

RWY identifierQFULength (ft)Width (ft)SurfaceLDA (ft)
1900UNK
0100UNK

Airport contact information

Address: Turrialba Costa Rica

Satellite view of MRAR